sensor_id;sensor_type;location;lat;lon;timestamp;P1;durP1;ratioP1;P2;durP2;ratioP2
42006;SDS011;27696;42.704;23.304;2023-03-01T00:00:52;4.60;;;4.20;;
42006;SDS011;27696;42.704;23.304;2023-03-01T00:03:18;5.25;;;4.65;;
42006;SDS011;27696;42.704;23.304;2023-03-01T00:05:44;4.45;;;4.05;;
42006;SDS011;27696;42.704;23.304;2023-03-01T00:08:10;4.82;;;4.03;;
42006;SDS011;27696;42.704;23.304;2023-03-01T00:10:36;4.95;;;3.50;;
42006;SDS011;27696;42.704;23.304;2023-03-01T00:13:01;4.82;;;4.30;;
42006;SDS011;27696;42.704;23.304;2023-03-01T00:15:27;4.38;;;3.97;;
42006;SDS011;27696;42.704;23.304;2023-03-01T00:17:52;5.22;;;4.00;;
42006;SDS011;27696;42.704;23.304;2023-03-01T00:20:18;4.95;;;3.92;;
42006;SDS011;27696;42.704;23.304;2023-03-01T00:22:43;4.10;;;3.67;;
42006;SDS011;27696;42.704;23.304;2023-03-01T00:25:09;4.75;;;3.70;;
42006;SDS011;27696;42.704;23.304;2023-03-01T00:27:34;3.80;;;3.47;;
42006;SDS011;27696;42.704;23.304;2023-03-01T00:30:00;4.03;;;3.30;;
42006;SDS011;27696;42.704;23.304;2023-03-01T00:32:25;3.50;;;3.20;;
42006;SDS011;27696;42.704;23.304;2023-03-01T00:34:50;3.92;;;3.38;;
42006;SDS011;27696;42.704;23.304;2023-03-01T00:37:22;3.00;;;2.72;;
42006;SDS011;27696;42.704;23.304;2023-03-01T00:39:48;2.80;;;2.53;;
42006;SDS011;27696;42.704;23.304;2023-03-01T00:42:13;2.92;;;2.63;;
42006;SDS011;27696;42.704;23.304;2023-03-01T00:44:39;3.13;;;2.70;;
42006;SDS011;27696;42.704;23.304;2023-03-01T00:47:04;3.35;;;2.97;;
42006;SDS011;27696;42.704;23.304;2023-03-01T00:49:30;3.28;;;2.97;;
42006;SDS011;27696;42.704;23.304;2023-03-01T00:51:55;3.50;;;3.10;;
42006;SDS011;27696;42.704;23.304;2023-03-01T00:54:20;3.97;;;3.47;;
42006;SDS011;27696;42.704;23.304;2023-03-01T00:56:46;3.40;;;3.10;;
42006;SDS011;27696;42.704;23.304;2023-03-01T00:59:11;3.78;;;3.38;;
42006;SDS011;27696;42.704;23.304;2023-03-01T01:01:37;3.95;;;3.22;;
42006;SDS011;27696;42.704;23.304;2023-03-01T01:04:04;3.33;;;3.03;;
42006;SDS011;27696;42.704;23.304;2023-03-01T01:06:35;3.25;;;2.95;;
42006;SDS011;27696;42.704;23.304;2023-03-01T01:09:02;3.10;;;2.70;;
42006;SDS011;27696;42.704;23.304;2023-03-01T01:11:30;3.75;;;3.03;;
42006;SDS011;27696;42.704;23.304;2023-03-01T01:13:56;3.22;;;2.92;;
42006;SDS011;27696;42.704;23.304;2023-03-01T01:16:22;3.97;;;2.92;;
42006;SDS011;27696;42.704;23.304;2023-03-01T01:18:49;3.20;;;2.90;;
42006;SDS011;27696;42.704;23.304;2023-03-01T01:21:16;3.03;;;2.72;;
42006;SDS011;27696;42.704;23.304;2023-03-01T01:23:43;3.13;;;2.83;;
42006;SDS011;27696;42.704;23.304;2023-03-01T01:26:15;4.20;;;2.95;;
42006;SDS011;27696;42.704;23.304;2023-03-01T01:28:50;3.10;;;2.80;;
42006;SDS011;27696;42.704;23.304;2023-03-01T01:31:16;3.35;;;2.90;;
42006;SDS011;27696;42.704;23.304;2023-03-01T01:33:42;2.78;;;2.30;;
42006;SDS011;27696;42.704;23.304;2023-03-01T01:36:08;3.25;;;2.95;;
42006;SDS011;27696;42.704;23.304;2023-03-01T01:38:34;2.40;;;2.20;;
42006;SDS011;27696;42.704;23.304;2023-03-01T01:41:00;2.38;;;2.17;;
42006;SDS011;27696;42.704;23.304;2023-03-01T01:43:28;3.25;;;2.85;;
42006;SDS011;27696;42.704;23.304;2023-03-01T01:45:55;3.33;;;2.63;;
42006;SDS011;27696;42.704;23.304;2023-03-01T01:48:23;2.35;;;2.15;;
42006;SDS011;27696;42.704;23.304;2023-03-01T01:50:51;2.75;;;2.40;;
42006;SDS011;27696;42.704;23.304;2023-03-01T01:53:20;2.60;;;2.28;;
42006;SDS011;27696;42.704;23.304;2023-03-01T01:55:47;3.65;;;2.05;;
42006;SDS011;27696;42.704;23.304;2023-03-01T01:58:16;1.95;;;1.83;;
42006;SDS011;27696;42.704;23.304;2023-03-01T02:00:43;2.28;;;2.08;;
42006;SDS011;27696;42.704;23.304;2023-03-01T02:03:10;3.33;;;2.38;;
42006;SDS011;27696;42.704;23.304;2023-03-01T02:08:03;2.53;;;2.00;;
42006;SDS011;27696;42.704;23.304;2023-03-01T02:10:29;2.55;;;2.15;;
42006;SDS011;27696;42.704;23.304;2023-03-01T02:12:58;1.90;;;1.63;;
42006;SDS011;27696;42.704;23.304;2023-03-01T02:15:23;1.70;;;1.60;;
42006;SDS011;27696;42.704;23.304;2023-03-01T02:17:49;1.88;;;1.77;;
42006;SDS011;27696;42.704;23.304;2023-03-01T02:22:59;1.75;;;1.65;;
42006;SDS011;27696;42.704;23.304;2023-03-01T02:25:31;2.25;;;1.73;;
42006;SDS011;27696;42.704;23.304;2023-03-01T02:30:43;3.35;;;2.30;;
42006;SDS011;27696;42.704;23.304;2023-03-01T02:33:29;2.60;;;2.40;;
42006;SDS011;27696;42.704;23.304;2023-03-01T02:35:57;2.83;;;2.00;;
42006;SDS011;27696;42.704;23.304;2023-03-01T02:38:24;1.75;;;1.65;;
42006;SDS011;27696;42.704;23.304;2023-03-01T02:40:50;2.75;;;1.92;;
42006;SDS011;27696;42.704;23.304;2023-03-01T02:43:16;2.20;;;2.00;;
42006;SDS011;27696;42.704;23.304;2023-03-01T02:45:47;2.03;;;1.92;;
42006;SDS011;27696;42.704;23.304;2023-03-01T02:48:17;3.17;;;2.70;;
42006;SDS011;27696;42.704;23.304;2023-03-01T02:50:51;5.53;;;2.88;;
42006;SDS011;27696;42.704;23.304;2023-03-01T02:54:23;3.35;;;2.53;;
42006;SDS011;27696;42.704;23.304;2023-03-01T02:56:24;2.63;;;2.42;;
42006;SDS011;27696;42.704;23.304;2023-03-01T02:58:50;2.97;;;2.70;;
42006;SDS011;27696;42.704;23.304;2023-03-01T03:01:17;2.47;;;2.28;;
42006;SDS011;27696;42.704;23.304;2023-03-01T03:03:43;2.47;;;2.28;;
42006;SDS011;27696;42.704;23.304;2023-03-01T03:06:09;2.58;;;2.35;;
42006;SDS011;27696;42.704;23.304;2023-03-01T03:08:35;2.97;;;2.53;;
42006;SDS011;27696;42.704;23.304;2023-03-01T03:11:00;2.72;;;2.53;;
42006;SDS011;27696;42.704;23.304;2023-03-01T03:13:25;2.40;;;2.20;;
42006;SDS011;27696;42.704;23.304;2023-03-01T03:15:54;3.45;;;2.42;;
42006;SDS011;27696;42.704;23.304;2023-03-01T03:18:23;4.55;;;2.90;;
42006;SDS011;27696;42.704;23.304;2023-03-01T03:20:51;3.10;;;2.40;;
42006;SDS011;27696;42.704;23.304;2023-03-01T03:23:18;2.67;;;2.10;;
42006;SDS011;27696;42.704;23.304;2023-03-01T03:25:47;3.00;;;2.70;;
42006;SDS011;27696;42.704;23.304;2023-03-01T03:28:16;3.42;;;2.92;;
42006;SDS011;27696;42.704;23.304;2023-03-01T03:30:42;5.13;;;3.10;;
42006;SDS011;27696;42.704;23.304;2023-03-01T03:33:08;3.50;;;3.20;;
42006;SDS011;27696;42.704;23.304;2023-03-01T03:35:38;3.70;;;3.40;;
42006;SDS011;27696;42.704;23.304;2023-03-01T03:38:11;3.10;;;2.80;;
42006;SDS011;27696;42.704;23.304;2023-03-01T03:40:45;4.38;;;2.83;;
42006;SDS011;27696;42.704;23.304;2023-03-01T03:43:16;3.28;;;2.63;;
42006;SDS011;27696;42.704;23.304;2023-03-01T03:45:45;4.55;;;3.22;;
42006;SDS011;27696;42.704;23.304;2023-03-01T03:48:11;4.20;;;3.55;;
42006;SDS011;27696;42.704;23.304;2023-03-01T03:50:37;3.38;;;2.85;;
42006;SDS011;27696;42.704;23.304;2023-03-01T03:53:05;4.15;;;3.40;;
42006;SDS011;27696;42.704;23.304;2023-03-01T03:55:34;3.95;;;3.40;;
42006;SDS011;27696;42.704;23.304;2023-03-01T03:58:04;3.72;;;3.42;;
42006;SDS011;27696;42.704;23.304;2023-03-01T04:00:32;4.05;;;3.50;;
42006;SDS011;27696;42.704;23.304;2023-03-01T04:02:59;4.25;;;3.25;;
42006;SDS011;27696;42.704;23.304;2023-03-01T04:05:26;5.13;;;3.55;;
42006;SDS011;27696;42.704;23.304;2023-03-01T04:07:51;7.68;;;2.97;;
42006;SDS011;27696;42.704;23.304;2023-03-01T04:10:30;3.20;;;2.95;;
42006;SDS011;27696;42.704;23.304;2023-03-01T04:12:56;3.80;;;3.42;;
42006;SDS011;27696;42.704;23.304;2023-03-01T04:15:22;4.32;;;3.53;;
42006;SDS011;27696;42.704;23.304;2023-03-01T04:17:49;3.63;;;3.33;;
42006;SDS011;27696;42.704;23.304;2023-03-01T04:20:17;3.42;;;3.13;;
42006;SDS011;27696;42.704;23.304;2023-03-01T04:23:12;3.65;;;3.35;;
42006;SDS011;27696;42.704;23.304;2023-03-01T04:25:46;3.05;;;2.78;;
42006;SDS011;27696;42.704;23.304;2023-03-01T04:28:29;3.23;;;2.93;;
42006;SDS011;27696;42.704;23.304;2023-03-01T04:30:57;4.55;;;3.30;;
42006;SDS011;27696;42.704;23.304;2023-03-01T04:33:24;3.78;;;3.17;;
42006;SDS011;27696;42.704;23.304;2023-03-01T04:35:50;3.50;;;3.20;;
42006;SDS011;27696;42.704;23.304;2023-03-01T04:38:15;4.47;;;3.00;;
42006;SDS011;27696;42.704;23.304;2023-03-01T04:40:42;3.53;;;3.22;;
42006;SDS011;27696;42.704;23.304;2023-03-01T04:43:08;3.25;;;2.95;;
42006;SDS011;27696;42.704;23.304;2023-03-01T04:45:35;3.85;;;3.45;;
42006;SDS011;27696;42.704;23.304;2023-03-01T04:48:01;3.78;;;3.47;;
42006;SDS011;27696;42.704;23.304;2023-03-01T04:50:27;3.50;;;3.10;;
42006;SDS011;27696;42.704;23.304;2023-03-01T04:52:52;3.75;;;3.40;;
42006;SDS011;27696;42.704;23.304;2023-03-01T04:55:18;3.42;;;3.13;;
42006;SDS011;27696;42.704;23.304;2023-03-01T04:57:43;3.88;;;3.50;;
42006;SDS011;27696;42.704;23.304;2023-03-01T05:00:12;3.88;;;3.50;;
42006;SDS011;27696;42.704;23.304;2023-03-01T05:02:48;8.02;;;3.45;;
42006;SDS011;27696;42.704;23.304;2023-03-01T05:05:26;11.55;;;3.58;;
42006;SDS011;27696;42.704;23.304;2023-03-01T05:07:54;7.68;;;3.90;;
42006;SDS011;27696;42.704;23.304;2023-03-01T05:10:24;7.15;;;3.97;;
42006;SDS011;27696;42.704;23.304;2023-03-01T05:12:51;5.47;;;4.00;;
42006;SDS011;27696;42.704;23.304;2023-03-01T05:15:17;6.70;;;4.28;;
42006;SDS011;27696;42.704;23.304;2023-03-01T05:17:43;5.65;;;4.38;;
42006;SDS011;27696;42.704;23.304;2023-03-01T05:20:08;7.05;;;4.38;;
42006;SDS011;27696;42.704;23.304;2023-03-01T05:22:36;5.35;;;4.40;;
42006;SDS011;27696;42.704;23.304;2023-03-01T05:25:02;5.72;;;4.70;;
42006;SDS011;27696;42.704;23.304;2023-03-01T05:27:28;4.88;;;4.30;;
42006;SDS011;27696;42.704;23.304;2023-03-01T05:29:54;5.78;;;4.32;;
42006;SDS011;27696;42.704;23.304;2023-03-01T05:32:20;7.80;;;6.60;;
42006;SDS011;27696;42.704;23.304;2023-03-01T05:34:45;5.60;;;4.90;;
42006;SDS011;27696;42.704;23.304;2023-03-01T05:37:11;5.63;;;4.45;;
42006;SDS011;27696;42.704;23.304;2023-03-01T05:39:38;5.25;;;4.75;;
42006;SDS011;27696;42.704;23.304;2023-03-01T05:42:03;7.20;;;4.28;;
42006;SDS011;27696;42.704;23.304;2023-03-01T05:44:29;6.53;;;5.10;;
42006;SDS011;27696;42.704;23.304;2023-03-01T05:46:55;8.30;;;5.25;;
42006;SDS011;27696;42.704;23.304;2023-03-01T05:49:21;6.80;;;4.55;;
42006;SDS011;27696;42.704;23.304;2023-03-01T05:51:51;7.88;;;5.25;;
42006;SDS011;27696;42.704;23.304;2023-03-01T05:54:17;7.05;;;4.80;;
42006;SDS011;27696;42.704;23.304;2023-03-01T05:56:44;7.32;;;5.20;;
42006;SDS011;27696;42.704;23.304;2023-03-01T05:59:09;6.93;;;5.28;;
42006;SDS011;27696;42.704;23.304;2023-03-01T06:01:35;8.25;;;4.40;;
42006;SDS011;27696;42.704;23.304;2023-03-01T06:04:01;5.13;;;4.60;;
42006;SDS011;27696;42.704;23.304;2023-03-01T06:06:27;6.80;;;4.57;;
42006;SDS011;27696;42.704;23.304;2023-03-01T06:08:53;7.60;;;4.35;;
42006;SDS011;27696;42.704;23.304;2023-03-01T06:11:19;9.70;;;4.40;;
42006;SDS011;27696;42.704;23.304;2023-03-01T06:13:45;7.25;;;5.07;;
42006;SDS011;27696;42.704;23.304;2023-03-01T06:16:11;5.53;;;4.85;;
42006;SDS011;27696;42.704;23.304;2023-03-01T06:18:37;6.68;;;4.45;;
42006;SDS011;27696;42.704;23.304;2023-03-01T06:21:03;6.35;;;4.90;;
42006;SDS011;27696;42.704;23.304;2023-03-01T06:23:29;9.02;;;5.13;;
42006;SDS011;27696;42.704;23.304;2023-03-01T06:25:55;9.43;;;5.00;;
42006;SDS011;27696;42.704;23.304;2023-03-01T06:28:20;9.88;;;6.82;;
42006;SDS011;27696;42.704;23.304;2023-03-01T06:30:46;6.68;;;4.72;;
42006;SDS011;27696;42.704;23.304;2023-03-01T06:33:12;5.15;;;4.50;;
42006;SDS011;27696;42.704;23.304;2023-03-01T06:35:39;7.15;;;4.30;;
42006;SDS011;27696;42.704;23.304;2023-03-01T06:38:04;8.15;;;4.20;;
42006;SDS011;27696;42.704;23.304;2023-03-01T06:40:30;7.57;;;3.95;;
42006;SDS011;27696;42.704;23.304;2023-03-01T06:42:56;4.68;;;3.33;;
42006;SDS011;27696;42.704;23.304;2023-03-01T06:45:22;4.93;;;3.40;;
42006;SDS011;27696;42.704;23.304;2023-03-01T06:47:48;4.13;;;2.90;;
42006;SDS011;27696;42.704;23.304;2023-03-01T06:50:14;4.70;;;3.10;;
42006;SDS011;27696;42.704;23.304;2023-03-01T06:52:40;5.72;;;3.20;;
42006;SDS011;27696;42.704;23.304;2023-03-01T06:55:05;5.00;;;3.58;;
42006;SDS011;27696;42.704;23.304;2023-03-01T06:57:31;5.60;;;3.58;;
42006;SDS011;27696;42.704;23.304;2023-03-01T06:59:57;3.78;;;3.40;;
42006;SDS011;27696;42.704;23.304;2023-03-01T07:02:22;8.32;;;3.38;;
42006;SDS011;27696;42.704;23.304;2023-03-01T07:04:48;6.30;;;3.35;;
42006;SDS011;27696;42.704;23.304;2023-03-01T07:07:15;8.57;;;4.03;;
42006;SDS011;27696;42.704;23.304;2023-03-01T07:09:40;7.47;;;3.97;;
42006;SDS011;27696;42.704;23.304;2023-03-01T07:12:06;5.78;;;4.30;;
42006;SDS011;27696;42.704;23.304;2023-03-01T07:14:31;5.45;;;4.63;;
42006;SDS011;27696;42.704;23.304;2023-03-01T07:16:57;8.13;;;4.93;;
42006;SDS011;27696;42.704;23.304;2023-03-01T07:19:22;7.93;;;5.03;;
42006;SDS011;27696;42.704;23.304;2023-03-01T07:21:48;5.80;;;3.95;;
42006;SDS011;27696;42.704;23.304;2023-03-01T07:24:14;10.57;;;4.40;;
42006;SDS011;27696;42.704;23.304;2023-03-01T07:26:39;6.60;;;4.47;;
42006;SDS011;27696;42.704;23.304;2023-03-01T07:29:05;5.03;;;4.10;;
42006;SDS011;27696;42.704;23.304;2023-03-01T07:31:31;8.18;;;4.85;;
42006;SDS011;27696;42.704;23.304;2023-03-01T07:33:57;9.98;;;4.28;;
42006;SDS011;27696;42.704;23.304;2023-03-01T07:36:22;6.65;;;4.60;;
42006;SDS011;27696;42.704;23.304;2023-03-01T07:38:48;9.15;;;4.30;;
42006;SDS011;27696;42.704;23.304;2023-03-01T07:41:14;6.13;;;4.20;;
42006;SDS011;27696;42.704;23.304;2023-03-01T07:43:39;12.55;;;4.90;;
42006;SDS011;27696;42.704;23.304;2023-03-01T07:46:05;11.32;;;4.75;;
42006;SDS011;27696;42.704;23.304;2023-03-01T07:48:31;14.30;;;6.53;;
42006;SDS011;27696;42.704;23.304;2023-03-01T07:50:57;8.02;;;4.97;;
42006;SDS011;27696;42.704;23.304;2023-03-01T07:53:26;8.48;;;4.97;;
42006;SDS011;27696;42.704;23.304;2023-03-01T07:56:07;10.35;;;7.40;;
42006;SDS011;27696;42.704;23.304;2023-03-01T07:58:37;5.22;;;4.38;;
42006;SDS011;27696;42.704;23.304;2023-03-01T08:01:04;7.07;;;5.13;;
42006;SDS011;27696;42.704;23.304;2023-03-01T08:03:30;10.65;;;4.88;;
42006;SDS011;27696;42.704;23.304;2023-03-01T08:05:58;8.82;;;4.28;;
42006;SDS011;27696;42.704;23.304;2023-03-01T08:08:24;8.88;;;4.13;;
42006;SDS011;27696;42.704;23.304;2023-03-01T08:10:50;5.53;;;3.42;;
42006;SDS011;27696;42.704;23.304;2023-03-01T08:13:16;7.50;;;3.92;;
42006;SDS011;27696;42.704;23.304;2023-03-01T08:15:43;7.60;;;4.80;;
42006;SDS011;27696;42.704;23.304;2023-03-01T08:18:09;6.38;;;4.00;;
42006;SDS011;27696;42.704;23.304;2023-03-01T08:20:34;8.88;;;3.45;;
42006;SDS011;27696;42.704;23.304;2023-03-01T08:22:59;7.93;;;3.45;;
42006;SDS011;27696;42.704;23.304;2023-03-01T08:25:25;6.13;;;3.42;;
42006;SDS011;27696;42.704;23.304;2023-03-01T08:27:50;5.10;;;3.88;;
42006;SDS011;27696;42.704;23.304;2023-03-01T08:30:16;6.85;;;3.88;;
42006;SDS011;27696;42.704;23.304;2023-03-01T08:32:41;5.15;;;3.53;;
42006;SDS011;27696;42.704;23.304;2023-03-01T08:35:07;5.82;;;3.15;;
42006;SDS011;27696;42.704;23.304;2023-03-01T08:37:33;4.80;;;3.65;;
42006;SDS011;27696;42.704;23.304;2023-03-01T08:39:59;8.35;;;4.03;;
42006;SDS011;27696;42.704;23.304;2023-03-01T08:42:25;7.22;;;3.33;;
42006;SDS011;27696;42.704;23.304;2023-03-01T08:44:51;7.82;;;3.95;;
42006;SDS011;27696;42.704;23.304;2023-03-01T08:47:16;6.78;;;3.10;;
42006;SDS011;27696;42.704;23.304;2023-03-01T08:49:42;3.20;;;2.90;;
42006;SDS011;27696;42.704;23.304;2023-03-01T08:52:07;5.05;;;3.20;;
42006;SDS011;27696;42.704;23.304;2023-03-01T08:54:32;4.63;;;3.00;;
42006;SDS011;27696;42.704;23.304;2023-03-01T08:56:58;5.93;;;3.50;;
42006;SDS011;27696;42.704;23.304;2023-03-01T08:59:26;9.98;;;3.88;;
42006;SDS011;27696;42.704;23.304;2023-03-01T09:01:52;7.15;;;3.30;;
42006;SDS011;27696;42.704;23.304;2023-03-01T09:04:18;3.90;;;3.33;;
42006;SDS011;27696;42.704;23.304;2023-03-01T09:06:43;6.53;;;3.20;;
42006;SDS011;27696;42.704;23.304;2023-03-01T09:09:15;6.38;;;3.05;;
42006;SDS011;27696;42.704;23.304;2023-03-01T09:11:42;5.22;;;3.47;;
42006;SDS011;27696;42.704;23.304;2023-03-01T09:14:11;9.70;;;3.15;;
42006;SDS011;27696;42.704;23.304;2023-03-01T09:16:37;4.53;;;3.00;;
42006;SDS011;27696;42.704;23.304;2023-03-01T09:19:03;7.25;;;2.75;;
42006;SDS011;27696;42.704;23.304;2023-03-01T09:21:28;5.63;;;3.15;;
42006;SDS011;27696;42.704;23.304;2023-03-01T09:23:55;5.15;;;2.72;;
42006;SDS011;27696;42.704;23.304;2023-03-01T09:26:21;2.95;;;2.65;;
42006;SDS011;27696;42.704;23.304;2023-03-01T09:28:48;3.55;;;2.55;;
42006;SDS011;27696;42.704;23.304;2023-03-01T09:31:15;3.25;;;2.40;;
42006;SDS011;27696;42.704;23.304;2023-03-01T09:33:42;4.07;;;2.95;;
42006;SDS011;27696;42.704;23.304;2023-03-01T09:36:12;3.95;;;3.10;;
42006;SDS011;27696;42.704;23.304;2023-03-01T09:38:38;7.72;;;3.08;;
42006;SDS011;27696;42.704;23.304;2023-03-01T09:41:09;7.03;;;3.10;;
42006;SDS011;27696;42.704;23.304;2023-03-01T09:43:49;3.33;;;2.50;;
42006;SDS011;27696;42.704;23.304;2023-03-01T09:46:20;4.82;;;2.35;;
42006;SDS011;27696;42.704;23.304;2023-03-01T09:48:58;5.78;;;2.47;;
42006;SDS011;27696;42.704;23.304;2023-03-01T09:51:29;3.78;;;2.35;;
42006;SDS011;27696;42.704;23.304;2023-03-01T09:53:56;2.92;;;2.50;;
42006;SDS011;27696;42.704;23.304;2023-03-01T10:01:50;3.78;;;2.90;;
42006;SDS011;27696;42.704;23.304;2023-03-01T10:09:36;7.25;;;2.80;;
42006;SDS011;27696;42.704;23.304;2023-03-01T10:12:10;4.43;;;2.03;;
42006;SDS011;27696;42.704;23.304;2023-03-01T10:22:15;5.30;;;2.85;;
42006;SDS011;27696;42.704;23.304;2023-03-01T10:24:43;2.85;;;2.38;;
42006;SDS011;27696;42.704;23.304;2023-03-01T10:27:15;2.67;;;2.20;;
42006;SDS011;27696;42.704;23.304;2023-03-01T10:32:25;6.05;;;3.10;;
42006;SDS011;27696;42.704;23.304;2023-03-01T10:34:51;8.93;;;2.85;;
42006;SDS011;27696;42.704;23.304;2023-03-01T10:37:17;3.22;;;2.75;;
42006;SDS011;27696;42.704;23.304;2023-03-01T10:39:55;4.63;;;2.60;;
42006;SDS011;27696;42.704;23.304;2023-03-01T10:43:05;8.35;;;2.55;;
42006;SDS011;27696;42.704;23.304;2023-03-01T10:45:16;6.57;;;2.90;;
42006;SDS011;27696;42.704;23.304;2023-03-01T10:50:44;8.20;;;2.53;;
42006;SDS011;27696;42.704;23.304;2023-03-01T10:56:12;3.47;;;2.45;;
42006;SDS011;27696;42.704;23.304;2023-03-01T10:58:40;8.68;;;2.90;;
42006;SDS011;27696;42.704;23.304;2023-03-01T11:03:41;6.30;;;1.92;;
42006;SDS011;27696;42.704;23.304;2023-03-01T11:08:45;4.20;;;1.95;;
42006;SDS011;27696;42.704;23.304;2023-03-01T11:11:25;1.83;;;1.38;;
42006;SDS011;27696;42.704;23.304;2023-03-01T11:14:12;7.25;;;1.95;;
42006;SDS011;27696;42.704;23.304;2023-03-01T11:16:41;4.65;;;2.15;;
42006;SDS011;27696;42.704;23.304;2023-03-01T11:21:34;5.53;;;2.03;;
42006;SDS011;27696;42.704;23.304;2023-03-01T11:24:01;3.35;;;2.10;;
42006;SDS011;27696;42.704;23.304;2023-03-01T11:26:29;6.32;;;2.75;;
42006;SDS011;27696;42.704;23.304;2023-03-01T11:28:57;3.83;;;2.10;;
42006;SDS011;27696;42.704;23.304;2023-03-01T11:31:25;6.50;;;1.95;;
42006;SDS011;27696;42.704;23.304;2023-03-01T11:33:56;4.65;;;2.13;;
42006;SDS011;27696;42.704;23.304;2023-03-01T11:42:40;5.95;;;3.40;;
42006;SDS011;27696;42.704;23.304;2023-03-01T12:03:32;5.93;;;4.55;;
42006;SDS011;27696;42.704;23.304;2023-03-01T12:06:24;6.47;;;3.50;;
42006;SDS011;27696;42.704;23.304;2023-03-01T12:09:17;3.25;;;2.95;;
42006;SDS011;27696;42.704;23.304;2023-03-01T12:12:05;8.32;;;5.13;;
42006;SDS011;27696;42.704;23.304;2023-03-01T12:26:53;5.93;;;3.40;;
42006;SDS011;27696;42.704;23.304;2023-03-01T12:29:42;4.95;;;3.22;;
42006;SDS011;27696;42.704;23.304;2023-03-01T12:34:51;5.40;;;2.90;;
42006;SDS011;27696;42.704;23.304;2023-03-01T12:40:45;5.43;;;3.03;;
42006;SDS011;27696;42.704;23.304;2023-03-01T12:51:43;5.47;;;3.08;;
42006;SDS011;27696;42.704;23.304;2023-03-01T12:54:35;7.75;;;2.83;;
42006;SDS011;27696;42.704;23.304;2023-03-01T13:11:10;4.35;;;3.13;;
42006;SDS011;27696;42.704;23.304;2023-03-01T13:13:40;4.18;;;3.10;;
42006;SDS011;27696;42.704;23.304;2023-03-01T13:19:14;7.93;;;3.00;;
42006;SDS011;27696;42.704;23.304;2023-03-01T13:21:41;4.22;;;3.13;;
42006;SDS011;27696;42.704;23.304;2023-03-01T13:27:09;6.57;;;4.10;;
42006;SDS011;27696;42.704;23.304;2023-03-01T13:29:43;6.53;;;3.58;;
42006;SDS011;27696;42.704;23.304;2023-03-01T13:35:03;6.20;;;4.72;;
42006;SDS011;27696;42.704;23.304;2023-03-01T13:37:42;14.13;;;10.80;;
42006;SDS011;27696;42.704;23.304;2023-03-01T13:42:53;11.95;;;5.40;;
42006;SDS011;27696;42.704;23.304;2023-03-01T13:45:38;9.52;;;4.28;;
42006;SDS011;27696;42.704;23.304;2023-03-01T13:48:09;7.40;;;4.13;;
42006;SDS011;27696;42.704;23.304;2023-03-01T13:50:38;7.07;;;4.43;;
42006;SDS011;27696;42.704;23.304;2023-03-01T13:53:11;9.33;;;4.23;;
42006;SDS011;27696;42.704;23.304;2023-03-01T13:55:42;6.00;;;4.15;;
42006;SDS011;27696;42.704;23.304;2023-03-01T13:58:15;4.90;;;3.85;;
42006;SDS011;27696;42.704;23.304;2023-03-01T14:00:43;5.45;;;4.10;;
42006;SDS011;27696;42.704;23.304;2023-03-01T14:03:18;7.35;;;3.80;;
42006;SDS011;27696;42.704;23.304;2023-03-01T14:06:04;8.75;;;3.65;;
42006;SDS011;27696;42.704;23.304;2023-03-01T14:08:37;5.03;;;3.85;;
42006;SDS011;27696;42.704;23.304;2023-03-01T14:11:07;6.60;;;3.95;;
42006;SDS011;27696;42.704;23.304;2023-03-01T14:13:46;9.45;;;4.00;;
42006;SDS011;27696;42.704;23.304;2023-03-01T14:18:52;7.13;;;3.92;;
42006;SDS011;27696;42.704;23.304;2023-03-01T14:21:22;9.48;;;3.88;;
42006;SDS011;27696;42.704;23.304;2023-03-01T14:23:47;7.97;;;3.67;;
42006;SDS011;27696;42.704;23.304;2023-03-01T14:26:13;10.48;;;4.38;;
42006;SDS011;27696;42.704;23.304;2023-03-01T14:28:45;5.25;;;3.38;;
42006;SDS011;27696;42.704;23.304;2023-03-01T14:34:16;4.22;;;2.97;;
42006;SDS011;27696;42.704;23.304;2023-03-01T14:36:44;6.30;;;3.63;;
42006;SDS011;27696;42.704;23.304;2023-03-01T14:39:17;6.25;;;3.75;;
42006;SDS011;27696;42.704;23.304;2023-03-01T14:41:49;7.90;;;3.40;;
42006;SDS011;27696;42.704;23.304;2023-03-01T14:44:18;6.47;;;3.78;;
42006;SDS011;27696;42.704;23.304;2023-03-01T14:46:51;6.68;;;3.45;;
42006;SDS011;27696;42.704;23.304;2023-03-01T14:49:22;9.10;;;3.88;;
42006;SDS011;27696;42.704;23.304;2023-03-01T14:51:53;12.75;;;4.40;;
42006;SDS011;27696;42.704;23.304;2023-03-01T14:57:12;5.72;;;3.58;;
42006;SDS011;27696;42.704;23.304;2023-03-01T14:59:44;5.35;;;3.60;;
42006;SDS011;27696;42.704;23.304;2023-03-01T15:02:12;4.93;;;3.72;;
42006;SDS011;27696;42.704;23.304;2023-03-01T15:04:49;9.63;;;3.90;;
42006;SDS011;27696;42.704;23.304;2023-03-01T15:07:16;6.13;;;3.60;;
42006;SDS011;27696;42.704;23.304;2023-03-01T15:09:43;9.55;;;3.90;;
42006;SDS011;27696;42.704;23.304;2023-03-01T15:12:25;7.28;;;3.88;;
42006;SDS011;27696;42.704;23.304;2023-03-01T15:14:54;7.47;;;4.90;;
42006;SDS011;27696;42.704;23.304;2023-03-01T15:17:28;8.07;;;4.53;;
42006;SDS011;27696;42.704;23.304;2023-03-01T15:19:57;10.00;;;4.32;;
42006;SDS011;27696;42.704;23.304;2023-03-01T15:22:23;5.35;;;3.88;;
42006;SDS011;27696;42.704;23.304;2023-03-01T15:24:50;8.68;;;5.20;;
42006;SDS011;27696;42.704;23.304;2023-03-01T15:27:17;5.43;;;4.00;;
42006;SDS011;27696;42.704;23.304;2023-03-01T15:29:51;8.30;;;4.13;;
42006;SDS011;27696;42.704;23.304;2023-03-01T15:34:57;5.60;;;3.42;;
42006;SDS011;27696;42.704;23.304;2023-03-01T15:40:17;7.60;;;4.00;;
42006;SDS011;27696;42.704;23.304;2023-03-01T15:42:59;24.15;;;14.98;;
42006;SDS011;27696;42.704;23.304;2023-03-01T15:45:27;10.52;;;5.10;;
42006;SDS011;27696;42.704;23.304;2023-03-01T15:47:57;9.38;;;4.85;;
42006;SDS011;27696;42.704;23.304;2023-03-01T15:50:27;6.57;;;4.75;;
42006;SDS011;27696;42.704;23.304;2023-03-01T15:52:54;12.15;;;5.18;;
42006;SDS011;27696;42.704;23.304;2023-03-01T15:55:25;10.35;;;5.47;;
42006;SDS011;27696;42.704;23.304;2023-03-01T15:58:02;11.20;;;5.60;;
42006;SDS011;27696;42.704;23.304;2023-03-01T16:00:34;10.23;;;5.07;;
42006;SDS011;27696;42.704;23.304;2023-03-01T16:02:59;7.43;;;4.40;;
42006;SDS011;27696;42.704;23.304;2023-03-01T16:05:26;8.02;;;4.35;;
42006;SDS011;27696;42.704;23.304;2023-03-01T16:07:53;8.70;;;4.85;;
42006;SDS011;27696;42.704;23.304;2023-03-01T16:10:19;9.57;;;4.72;;
42006;SDS011;27696;42.704;23.304;2023-03-01T16:12:44;8.48;;;5.53;;
42006;SDS011;27696;42.704;23.304;2023-03-01T16:15:31;8.30;;;5.45;;
42006;SDS011;27696;42.704;23.304;2023-03-01T16:17:59;7.93;;;5.22;;
42006;SDS011;27696;42.704;23.304;2023-03-01T16:20:26;8.90;;;5.38;;
42006;SDS011;27696;42.704;23.304;2023-03-01T16:22:52;11.63;;;6.22;;
42006;SDS011;27696;42.704;23.304;2023-03-01T16:25:18;13.10;;;6.90;;
42006;SDS011;27696;42.704;23.304;2023-03-01T16:27:45;8.88;;;5.88;;
42006;SDS011;27696;42.704;23.304;2023-03-01T16:30:13;13.02;;;6.22;;
42006;SDS011;27696;42.704;23.304;2023-03-01T16:32:41;10.23;;;5.68;;
42006;SDS011;27696;42.704;23.304;2023-03-01T16:35:08;8.52;;;5.40;;
42006;SDS011;27696;42.704;23.304;2023-03-01T16:37:35;9.65;;;5.03;;
42006;SDS011;27696;42.704;23.304;2023-03-01T16:40:00;15.60;;;5.97;;
42006;SDS011;27696;42.704;23.304;2023-03-01T16:42:26;10.18;;;5.40;;
42006;SDS011;27696;42.704;23.304;2023-03-01T16:44:54;12.50;;;5.45;;
42006;SDS011;27696;42.704;23.304;2023-03-01T16:47:20;8.23;;;5.55;;
42006;SDS011;27696;42.704;23.304;2023-03-01T16:49:46;13.43;;;5.78;;
42006;SDS011;27696;42.704;23.304;2023-03-01T16:52:11;12.75;;;6.07;;
42006;SDS011;27696;42.704;23.304;2023-03-01T16:54:36;10.43;;;5.88;;